This is the latest recevied weather packets stored in our database for station/object KA7KDX-4. If no packets are shown the sender has not sent any weather packets the latest 1 day(s).
| Time | Temp. | Humidity | Pressure | Rain* | Wind** | Luminosity | Snow |
|---|---|---|---|---|---|---|---|
| 1836274680 | 20° C | 41% | 1014.7 hPa | 0 mm | 1.79 m/s, 311° | - | - |
| 1836274529 | 20° C | 42% | 1014.9 hPa | 0 mm | 0.89 m/s, 301° | - | - |
| 1836274380 | 20.56° C | 41% | 1014.5 hPa | 0 mm | 1.79 m/s, 311° | - | - |
| 1836274230 | 20° C | 41% | 1014.8 hPa | 0 mm | 1.34 m/s, 301° | - | - |
| 1836274080 | 20.56° C | 41% | 1014.4 hPa | 0 mm | 1.34 m/s, 312° | - | - |
| 1778054405 | 9.44° C | 80% | 1011.3 hPa | 0 mm | 2.24 m/s, 206° | - | - |
| 1778054105 | 9.44° C | 80% | 1011.3 hPa | 0 mm | 2.68 m/s, 207° | - | - |
| 1778053805 | 9.44° C | 76% | 1011.1 hPa | 0 mm | 3.58 m/s, 205° | - | - |
| 1778053506 | 9.44° C | 75% | 1011.1 hPa | 0 mm | 3.58 m/s, 206° | - | - |
| 1778053206 | 9.44° C | 77% | 1011.1 hPa | 0 mm | 4.92 m/s, 202° | - | - |
| 1778052906 | 9.44° C | 79% | 1011.3 hPa | 0 mm | 3.58 m/s, 190° | - | - |
| 1778052606 | 9.44° C | 78% | 1011.1 hPa | 0 mm | 4.47 m/s, 190° | - | - |
| 1778052305 | 9.44° C | 79% | 1010.9 hPa | 0 mm | 6.26 m/s, 200° | - | - |
| 1778052005 | 9.44° C | 80% | 1011 hPa | 0 mm | 4.47 m/s, 201° | - | - |
| 1778051715 | 8.89° C | 82% | 1011.3 hPa | 0 mm | 3.58 m/s, 206° | - | - |
| 1778051405 | 9.44° C | 84% | 1011.4 hPa | 0 mm | 4.47 m/s, 202° | - | - |
| 1778051105 | 9.44° C | 84% | 1011.4 hPa | 0 mm | 2.68 m/s, 207° | - | - |
| 1778050805 | 9.44° C | 83% | 1011.2 hPa | 0 mm | 3.13 m/s, 196° | - | - |
| 1778050506 | 9.44° C | 82% | 1011 hPa | 0.76 mm | 4.47 m/s, 193° | - | - |
| 1778050206 | 10° C | 81% | 1011.1 hPa | 1.52 mm | 4.47 m/s, 186° | - | - |
| 1778049906 | 10° C | 80% | 1011 hPa | 3.05 mm | 4.02 m/s, 148° | - | - |
| 1778049605 | 10° C | 78% | 1011.1 hPa | 4.06 mm | 4.47 m/s, 149° | - | - |
| 1778049305 | 10.56° C | 77% | 1011.1 hPa | 4.83 mm | 3.58 m/s, 146° | - | - |
| 1778049007 | 10.56° C | 75% | 1011.1 hPa | 5.84 mm | 3.13 m/s, 145° | - | - |
| 1778048705 | 10.56° C | 76% | 1011 hPa | 6.86 mm | 3.13 m/s, 222° | - | - |
* Rain latest hour (hover to see other rain measurements)
** Current wind speed in m/s (hover to see current wind gust speed)